Terminal Aerodrome Forecast
Issued by NWS

Home | Current Version | Previous Version | Text Only | Print | Product List | Glossary On
Versions: 1 2 3 4 5 6 7 8 9 10 11 12 13 14
000
FTUS43 KILX 302300
TAFBMI
TAF
KBMI 302335Z 3100/3124 23007KT P6SM VCTS SCT035CB
     FM310500 22005KT 5SM BR SCT035
      TEMPO 3109/3113 2SM BR SCT005
     FM311400 21008KT P6SM SCT025=

USA.gov is the U.S. government's official web portal to all federal, state and local government web resources and services.